Flight Track Log - Related Links

Times and Time Zones

All times are in EDT time to prevent confusion due to time zone crossing. See the CHQ6100 flight status page for this flight to view local times or setup timezone preferences in your user account.

Time Position Orientation Groundspeed Altitude Reporting Facility
EDT Latitude Longitude Course Direction KTS MPH feet Rate Location/Type
Mon 04:51:45 PM 41.4169 -81.8433 90° East 165 190 1,700  Level Cleveland Center
Mon 04:52:28 PM 41.4453 -81.8089 42° Northeast 194 223 3,100 1,964 Climbing Cleveland Center
Mon 04:53:35 PM 41.5086 -81.7606 30° Northeast 271 312 5,300 2,315 Climbing Cleveland Center
Mon 04:54:00 PM 41.6660 -81.5841 37° Northeast  Level FlightAware Approximate
Mon 04:54:35 PM 41.5689 -81.6975 38° Northeast 286 329 8,000  Level Cleveland Center
Mon 04:55:00 PM 41.7554 -81.4947 37° Northeast  Level FlightAware Approximate
Mon 04:55:45 PM 41.6422 -81.6231 37° Northeast 283 326 10,500  Level Cleveland Center
Mon 04:56:00 PM 41.8333 -81.3974 90° East  Level FlightAware Approximate
Mon 04:56:47 PM 41.7094 -81.5528 38° Northeast 298 343 12,000  Level Cleveland Center
Mon 04:57:00 PM 41.8500 -81.2506 90° East  Level FlightAware Approximate
Mon 04:57:49 PM 41.7872 -81.4725 38° Northeast 329 379 13,600  Level Cleveland Center
Mon 04:58:52 PM 41.8447 -81.3753 52° Northeast 339 390 14,300 1,488 Climbing Cleveland Center
Mon 04:59:54 PM 41.8658 -81.2481 77° East 352 405 16,700 2,032 Climbing Cleveland Center
Mon 05:00:56 PM 41.8772 -81.0881 84° East 359 413 18,500 1,548 Climbing Cleveland Center
Mon 05:01:58 PM 41.8783 -80.9522 89° East 360 414 19,900 1,306 Climbing Cleveland Center
Mon 05:03:00 PM 41.8803 -80.8094 89° East 377 434 21,200 1,500 Climbing Cleveland Center
Mon 05:04:02 PM 41.8814 -80.6683 89° East 379 436 23,000 1,440 Climbing Cleveland Center
Mon 05:05:05 PM 41.8825 -80.5256 89° East 379 436 24,200 1,248 Climbing Cleveland Center
Mon 05:06:07 PM 41.8831 -80.3503 90° East 390 449 25,600 1,306 Climbing Cleveland Center
Mon 05:07:09 PM 41.8836 -80.2025 90° East 393 452 26,900 1,306 Climbing Cleveland Center
Mon 05:08:11 PM 41.8836 -80.0439 90° East 403 464 28,300 1,016 Climbing Cleveland Center
Mon 05:09:13 PM 41.8842 -79.8856 90° East 405 466 29,000 336 Climbing Cleveland Center
Mon 05:10:16 PM 41.8703 -79.7314 97° East 426 490 29,000  Level Cleveland Center
Mon 05:11:18 PM 41.8475 -79.5678 101° East 444 511 29,000  Level Cleveland Center
Mon 05:12:20 PM 41.8378 -79.4017 94° East 445 512 29,000  Level Cleveland Center
Mon 05:13:22 PM 41.8256 -79.2236 95° East 446 513 29,000  Level Cleveland Center
Mon 05:14:24 PM 41.8156 -79.0597 95° East 447 514 29,000  Level Cleveland Center
Mon 05:15:27 PM 41.8042 -78.8753 95° East 446 513 29,000  Level Cleveland Center
Mon 05:16:29 PM 41.7939 -78.7106 95° East 446 513 29,000  Level Cleveland Center
Mon 05:17:31 PM 41.7817 -78.5456 96° East 446 513 29,000  Level Cleveland Center
Mon 05:18:33 PM 41.7717 -78.3808 95° East 446 513 29,000  Level Cleveland Center
Mon 05:19:35 PM 41.7572 -78.1831 96° East 446 513 29,000  Level Cleveland Center
Mon 05:20:37 PM 41.7450 -78.0178 96° East 446 513 29,000  Level Cleveland Center
Mon 05:21:40 PM 41.7331 -77.8531 95° East 446 513 29,000  Level Cleveland Center
Mon 05:22:42 PM 41.7203 -77.6878 96° East 447 514 29,000  Level Cleveland Center
Mon 05:23:44 PM 41.7081 -77.5231 96° East 447 514 29,000  Level Cleveland Center
Mon 05:24:46 PM 41.6942 -77.3503 96° East 447 514 29,000  Level Cleveland Center
Mon 05:25:48 PM 41.6769 -77.1511 97° East 449 517 29,000  Level Cleveland Center
Mon 05:26:51 PM 41.6361 -76.9942 109° East 452 520 29,000  Level Cleveland Center
Mon 05:27:32 PM 41.6075 -76.8911 110° East 443 510 29,000  Level New York Center
Mon 05:28:30 PM 41.5633 -76.7347 111° Southeast 449 517 29,000 -407 Level New York Center
Mon 05:29:30 PM 41.5211 -76.5783 110° East 449 517 28,200 -992 Descending New York Center
Mon 05:30:31 PM 41.4786 -76.4225 110° East 449 517 27,000 -1,109 Descending New York Center
Mon 05:31:29 PM 41.4414 -76.2808 109° East 449 517 26,000 -1,109 Descending New York Center
Mon 05:32:30 PM 41.3964 -76.1278 111° Southeast 449 517 24,800 -1,190 Descending New York Center
Mon 05:33:30 PM 41.3550 -75.9808 111° Southeast 431 496 23,600 -900 Descending New York Center
Mon 05:34:30 PM 41.3133 -75.8367 111° Southeast 418 481 23,000 -300 Descending New York Center
Mon 05:35:30 PM 41.2694 -75.6928 112° Southeast 418 481 23,000  Level New York Center
Mon 05:36:31 PM 41.2233 -75.5458 113° Southeast 424 488 23,000  Level New York Center
Mon 05:37:31 PM 41.1750 -75.4019 114° Southeast 424 488 23,000  Level New York Center
Mon 05:38:29 PM 41.1264 -75.2553 114° Southeast 429 494 23,000  Level New York Center
Mon 05:39:31 PM 41.0814 -75.1231 114° Southeast 417 480 23,000 -450 Level New York Center
Mon 05:40:29 PM 41.0381 -74.9964 114° Southeast 400 460 22,100 -1,000 Descending New York Center
Mon 05:41:31 PM 40.9969 -74.8619 112° Southeast 392 451 21,000 -850 Descending New York Center
Mon 05:42:29 PM 40.9789 -74.7233 100° East 378 435 20,400 -850 Descending New York Center
Mon 05:43:31 PM 40.9664 -74.5936 97° East 366 421 19,300 -683 Descending New York Center
Mon 05:44:32 PM 40.9497 -74.4608 99° East 361 415 19,000 -151 Descending New York Center
Mon 05:45:30 PM 40.8867 -74.3475 126° Southeast 345 397 19,000  Level New York Center
Mon 05:46:31 PM 40.8331 -74.2542 127° Southeast 360 414 19,000 -99 Level New York Center
Mon 05:47:31 PM 40.7675 -74.1467 129° Southeast 365 420 18,800 -966 Descending New York Center
Mon 05:48:29 PM 40.6761 -74.0656 146° Southeast 365 420 17,100 -1,800 Descending New York Center
Mon 05:49:01 PM 40.6333 -74.0167 139° Southeast 347 399 16,100 -1,826 Descending New York TRACON
Mon 05:50:01 PM 40.5500 -73.9500 149° Southeast 336 387 14,300 -1,700 Descending New York TRACON
Mon 05:51:01 PM 40.4833 -73.9000 150° Southeast 316 364 12,700 -1,800 Descending New York TRACON
Mon 05:52:01 PM 40.4000 -73.8833 171° South 297 342 10,700 -2,050 Descending New York TRACON
Mon 05:53:01 PM 40.3167 -73.8667 171° South 305 351 8,600 -1,933 Descending New York TRACON
Mon 05:53:31 PM 40.3033 -73.8244 112° Southeast 273 314 7,800 -1,800 Descending New York Center
Mon 05:54:31 PM 40.2994 -73.7319 93° East 254 292 5,900 -1,664 Descending New York Center
Mon 05:55:30 PM 40.3494 -73.6469 52° Northeast 216 249 4,500 -950 Descending New York Center
Mon 05:56:31 PM 40.3928 -73.5806 49° Northeast 240 276 4,000 -252 Descending New York Center
Mon 05:57:29 PM 40.4528 -73.5175 39° Northeast 254 292 4,000  Level New York Center
Mon 05:58:01 PM 40.4833 -73.5000 24° Northeast 249 287 4,000  Level New York TRACON
Mon 05:58:55 PM 40.5333 -73.4500 37° Northeast 251 289 4,000  Level New York TRACON
Mon 05:59:55 PM 40.6000 -73.4000 30° Northeast 248 285 4,000  Level New York TRACON
Mon 06:00:55 PM 40.6667 -73.4000 360° North 228 262 4,000 -500 Level New York TRACON
Mon 06:01:55 PM 40.7167 -73.4333 333° Northwest 217 250 3,000 -500 Descending New York TRACON
Mon 06:02:55 PM 40.7667 -73.4667 333° Northwest 212 244 3,000 -238 Level New York TRACON
Mon 06:04:01 PM 40.8000 -73.5333 303° West 186 214 2,500 -476 Descending New York TRACON
Mon 06:05:01 PM 40.8000 -73.5833 270° West 195 224 2,000 -250 Descending New York TRACON
Mon 06:06:01 PM 40.7667 -73.6500 237° Southwest 184 212 2,000 -50 Level New York TRACON
Mon 06:07:01 PM 40.7333 -73.6833 217° Southwest 181 208 1,900 -450 Descending New York TRACON
Mon 06:08:01 PM 40.7000 -73.7167 217° Southwest 148 170 1,100 -750 Descending New York TRACON
Mon 06:09:01 PM 40.6667 -73.7500 217° Southwest 133 153 400 -700 Descending New York TRACON

Login

Don't have an account? Register now (free) for customized features, flight alerts, and more!